sensor_id;sensor_type;location;lat;lon;timestamp;P1;durP1;ratioP1;P2;durP2;ratioP2
17451;SDS011;8843;48.838;9.324;2023-07-30T00:02:14;2.67;;;1.80;;
17451;SDS011;8843;48.838;9.324;2023-07-30T00:04:41;4.03;;;2.13;;
17451;SDS011;8843;48.838;9.324;2023-07-30T00:07:08;1.90;;;1.80;;
17451;SDS011;8843;48.838;9.324;2023-07-30T00:09:36;2.50;;;1.97;;
17451;SDS011;8843;48.838;9.324;2023-07-30T00:12:05;4.63;;;2.63;;
17451;SDS011;8843;48.838;9.324;2023-07-30T00:14:32;3.33;;;1.80;;
17451;SDS011;8843;48.838;9.324;2023-07-30T00:16:59;1.80;;;1.70;;
17451;SDS011;8843;48.838;9.324;2023-07-30T00:19:26;3.17;;;1.80;;
17451;SDS011;8843;48.838;9.324;2023-07-30T00:21:53;2.27;;;1.87;;
17451;SDS011;8843;48.838;9.324;2023-07-30T00:24:20;4.30;;;1.77;;
17451;SDS011;8843;48.838;9.324;2023-07-30T00:26:47;2.07;;;1.40;;
17451;SDS011;8843;48.838;9.324;2023-07-30T00:29:15;1.93;;;1.50;;
17451;SDS011;8843;48.838;9.324;2023-07-30T00:31:43;2.67;;;1.50;;
17451;SDS011;8843;48.838;9.324;2023-07-30T00:34:09;3.93;;;1.40;;
17451;SDS011;8843;48.838;9.324;2023-07-30T00:36:36;1.73;;;1.30;;
17451;SDS011;8843;48.838;9.324;2023-07-30T00:39:03;2.20;;;1.57;;
17451;SDS011;8843;48.838;9.324;2023-07-30T00:41:30;1.83;;;1.40;;
17451;SDS011;8843;48.838;9.324;2023-07-30T00:43:57;2.57;;;1.27;;
17451;SDS011;8843;48.838;9.324;2023-07-30T00:46:25;1.60;;;1.00;;
17451;SDS011;8843;48.838;9.324;2023-07-30T00:48:52;1.90;;;1.30;;
17451;SDS011;8843;48.838;9.324;2023-07-30T00:51:19;1.30;;;1.20;;
17451;SDS011;8843;48.838;9.324;2023-07-30T00:53:47;1.63;;;1.33;;
17451;SDS011;8843;48.838;9.324;2023-07-30T00:56:14;1.07;;;1.00;;
17451;SDS011;8843;48.838;9.324;2023-07-30T00:58:42;1.53;;;1.40;;
17451;SDS011;8843;48.838;9.324;2023-07-30T01:01:10;1.30;;;1.20;;
17451;SDS011;8843;48.838;9.324;2023-07-30T01:03:40;1.60;;;1.50;;
17451;SDS011;8843;48.838;9.324;2023-07-30T01:06:06;1.43;;;1.30;;
17451;SDS011;8843;48.838;9.324;2023-07-30T01:08:33;1.93;;;1.20;;
17451;SDS011;8843;48.838;9.324;2023-07-30T01:11:01;3.97;;;1.83;;
17451;SDS011;8843;48.838;9.324;2023-07-30T01:13:29;1.30;;;1.20;;
17451;SDS011;8843;48.838;9.324;2023-07-30T01:15:58;1.40;;;1.30;;
17451;SDS011;8843;48.838;9.324;2023-07-30T01:18:25;4.23;;;1.40;;
17451;SDS011;8843;48.838;9.324;2023-07-30T01:20:54;1.70;;;1.23;;
17451;SDS011;8843;48.838;9.324;2023-07-30T01:23:24;11.97;;;1.57;;
17451;SDS011;8843;48.838;9.324;2023-07-30T01:25:52;1.60;;;1.43;;
17451;SDS011;8843;48.838;9.324;2023-07-30T01:28:28;2.50;;;1.27;;
17451;SDS011;8843;48.838;9.324;2023-07-30T01:30:57;1.60;;;1.50;;
17451;SDS011;8843;48.838;9.324;2023-07-30T01:33:26;4.40;;;1.50;;
17451;SDS011;8843;48.838;9.324;2023-07-30T01:35:56;2.37;;;1.53;;
17451;SDS011;8843;48.838;9.324;2023-07-30T01:38:25;1.53;;;1.43;;
17451;SDS011;8843;48.838;9.324;2023-07-30T01:40:52;2.63;;;2.17;;
17451;SDS011;8843;48.838;9.324;2023-07-30T01:43:19;2.33;;;1.47;;
17451;SDS011;8843;48.838;9.324;2023-07-30T01:45:46;2.00;;;1.60;;
17451;SDS011;8843;48.838;9.324;2023-07-30T01:48:13;3.13;;;1.63;;
17451;SDS011;8843;48.838;9.324;2023-07-30T01:50:40;2.43;;;1.90;;
17451;SDS011;8843;48.838;9.324;2023-07-30T01:53:09;2.07;;;1.83;;
17451;SDS011;8843;48.838;9.324;2023-07-30T01:55:36;1.80;;;1.70;;
17451;SDS011;8843;48.838;9.324;2023-07-30T01:58:04;3.17;;;1.87;;
17451;SDS011;8843;48.838;9.324;2023-07-30T02:00:31;1.97;;;1.77;;
17451;SDS011;8843;48.838;9.324;2023-07-30T02:02:58;2.03;;;1.73;;
17451;SDS011;8843;48.838;9.324;2023-07-30T02:05:24;2.27;;;1.83;;
17451;SDS011;8843;48.838;9.324;2023-07-30T02:07:51;2.00;;;1.70;;
17451;SDS011;8843;48.838;9.324;2023-07-30T02:10:20;3.93;;;1.67;;
17451;SDS011;8843;48.838;9.324;2023-07-30T02:12:47;3.90;;;1.83;;
17451;SDS011;8843;48.838;9.324;2023-07-30T02:15:13;5.23;;;1.60;;
17451;SDS011;8843;48.838;9.324;2023-07-30T02:17:40;1.87;;;1.70;;
17451;SDS011;8843;48.838;9.324;2023-07-30T02:20:08;1.97;;;1.67;;
17451;SDS011;8843;48.838;9.324;2023-07-30T02:22:35;2.13;;;1.90;;
17451;SDS011;8843;48.838;9.324;2023-07-30T02:25:02;2.07;;;1.90;;
17451;SDS011;8843;48.838;9.324;2023-07-30T02:27:31;1.77;;;1.67;;
17451;SDS011;8843;48.838;9.324;2023-07-30T02:29:58;2.60;;;1.93;;
17451;SDS011;8843;48.838;9.324;2023-07-30T02:32:25;2.07;;;1.90;;
17451;SDS011;8843;48.838;9.324;2023-07-30T02:34:51;2.30;;;1.60;;
17451;SDS011;8843;48.838;9.324;2023-07-30T02:37:18;2.93;;;1.90;;
17451;SDS011;8843;48.838;9.324;2023-07-30T02:39:45;4.27;;;1.70;;
17451;SDS011;8843;48.838;9.324;2023-07-30T02:42:12;1.80;;;1.57;;
17451;SDS011;8843;48.838;9.324;2023-07-30T02:44:40;3.20;;;1.80;;
17451;SDS011;8843;48.838;9.324;2023-07-30T02:47:07;1.70;;;1.60;;
17451;SDS011;8843;48.838;9.324;2023-07-30T02:49:34;2.10;;;1.90;;
17451;SDS011;8843;48.838;9.324;2023-07-30T02:52:01;3.47;;;2.30;;
17451;SDS011;8843;48.838;9.324;2023-07-30T02:54:27;2.13;;;1.87;;
17451;SDS011;8843;48.838;9.324;2023-07-30T02:56:54;2.10;;;1.80;;
17451;SDS011;8843;48.838;9.324;2023-07-30T02:59:21;2.37;;;1.57;;
17451;SDS011;8843;48.838;9.324;2023-07-30T03:01:50;2.20;;;2.00;;
17451;SDS011;8843;48.838;9.324;2023-07-30T03:04:16;2.27;;;1.97;;
17451;SDS011;8843;48.838;9.324;2023-07-30T03:06:43;3.63;;;2.17;;
17451;SDS011;8843;48.838;9.324;2023-07-30T03:09:10;3.40;;;2.30;;
17451;SDS011;8843;48.838;9.324;2023-07-30T03:11:37;1.90;;;1.70;;
17451;SDS011;8843;48.838;9.324;2023-07-30T03:14:04;1.70;;;1.60;;
17451;SDS011;8843;48.838;9.324;2023-07-30T03:16:31;2.37;;;2.17;;
17451;SDS011;8843;48.838;9.324;2023-07-30T03:18:59;2.77;;;1.90;;
17451;SDS011;8843;48.838;9.324;2023-07-30T03:21:26;4.43;;;2.63;;
17451;SDS011;8843;48.838;9.324;2023-07-30T03:23:53;2.60;;;2.10;;
17451;SDS011;8843;48.838;9.324;2023-07-30T03:26:19;2.43;;;1.93;;
17451;SDS011;8843;48.838;9.324;2023-07-30T03:28:46;2.70;;;2.27;;
17451;SDS011;8843;48.838;9.324;2023-07-30T03:31:13;2.90;;;2.20;;
17451;SDS011;8843;48.838;9.324;2023-07-30T03:33:40;2.20;;;2.00;;
17451;SDS011;8843;48.838;9.324;2023-07-30T03:36:10;2.43;;;2.23;;
17451;SDS011;8843;48.838;9.324;2023-07-30T03:38:37;4.60;;;2.10;;
17451;SDS011;8843;48.838;9.324;2023-07-30T03:41:04;3.13;;;1.90;;
17451;SDS011;8843;48.838;9.324;2023-07-30T03:43:31;4.33;;;2.23;;
17451;SDS011;8843;48.838;9.324;2023-07-30T03:45:58;2.27;;;1.83;;
17451;SDS011;8843;48.838;9.324;2023-07-30T03:48:25;3.53;;;2.10;;
17451;SDS011;8843;48.838;9.324;2023-07-30T03:50:52;2.30;;;1.93;;
17451;SDS011;8843;48.838;9.324;2023-07-30T03:53:21;2.53;;;2.33;;
17451;SDS011;8843;48.838;9.324;2023-07-30T03:55:48;3.63;;;2.50;;
17451;SDS011;8843;48.838;9.324;2023-07-30T03:58:15;2.60;;;2.40;;
17451;SDS011;8843;48.838;9.324;2023-07-30T04:00:42;3.77;;;2.13;;
17451;SDS011;8843;48.838;9.324;2023-07-30T04:03:09;2.23;;;2.03;;
17451;SDS011;8843;48.838;9.324;2023-07-30T04:05:36;3.87;;;2.43;;
17451;SDS011;8843;48.838;9.324;2023-07-30T04:08:03;3.03;;;2.60;;
17451;SDS011;8843;48.838;9.324;2023-07-30T04:10:31;5.10;;;2.30;;
17451;SDS011;8843;48.838;9.324;2023-07-30T04:12:58;2.87;;;2.57;;
17451;SDS011;8843;48.838;9.324;2023-07-30T04:15:26;4.20;;;2.80;;
17451;SDS011;8843;48.838;9.324;2023-07-30T04:17:53;4.73;;;2.97;;
17451;SDS011;8843;48.838;9.324;2023-07-30T04:20:20;3.17;;;2.20;;
17451;SDS011;8843;48.838;9.324;2023-07-30T04:22:47;6.37;;;2.27;;
17451;SDS011;8843;48.838;9.324;2023-07-30T04:25:13;4.30;;;2.80;;
17451;SDS011;8843;48.838;9.324;2023-07-30T04:27:42;1.97;;;1.77;;
17451;SDS011;8843;48.838;9.324;2023-07-30T04:30:09;5.53;;;2.13;;
17451;SDS011;8843;48.838;9.324;2023-07-30T04:32:36;4.90;;;2.30;;
17451;SDS011;8843;48.838;9.324;2023-07-30T04:35:03;2.90;;;2.03;;
17451;SDS011;8843;48.838;9.324;2023-07-30T04:37:31;3.73;;;2.07;;
17451;SDS011;8843;48.838;9.324;2023-07-30T04:39:58;2.53;;;2.30;;
17451;SDS011;8843;48.838;9.324;2023-07-30T04:42:25;3.03;;;2.50;;
17451;SDS011;8843;48.838;9.324;2023-07-30T04:44:53;4.30;;;2.33;;
17451;SDS011;8843;48.838;9.324;2023-07-30T04:47:20;4.27;;;2.07;;
17451;SDS011;8843;48.838;9.324;2023-07-30T04:49:46;2.97;;;2.23;;
17451;SDS011;8843;48.838;9.324;2023-07-30T04:52:13;3.17;;;2.10;;
17451;SDS011;8843;48.838;9.324;2023-07-30T04:54:40;4.30;;;2.13;;
17451;SDS011;8843;48.838;9.324;2023-07-30T04:57:07;3.53;;;2.30;;
17451;SDS011;8843;48.838;9.324;2023-07-30T04:59:34;2.70;;;2.23;;
17451;SDS011;8843;48.838;9.324;2023-07-30T05:02:02;4.27;;;2.50;;
17451;SDS011;8843;48.838;9.324;2023-07-30T05:04:29;3.10;;;2.37;;
17451;SDS011;8843;48.838;9.324;2023-07-30T05:06:56;3.73;;;2.37;;
17451;SDS011;8843;48.838;9.324;2023-07-30T05:09:23;2.40;;;2.20;;
17451;SDS011;8843;48.838;9.324;2023-07-30T05:11:50;4.97;;;2.20;;
17451;SDS011;8843;48.838;9.324;2023-07-30T05:14:17;3.27;;;2.17;;
17451;SDS011;8843;48.838;9.324;2023-07-30T05:16:43;2.57;;;2.37;;
17451;SDS011;8843;48.838;9.324;2023-07-30T05:19:12;5.60;;;2.20;;
17451;SDS011;8843;48.838;9.324;2023-07-30T05:21:38;2.40;;;2.20;;
17451;SDS011;8843;48.838;9.324;2023-07-30T05:24:07;2.90;;;2.43;;
17451;SDS011;8843;48.838;9.324;2023-07-30T05:26:34;5.30;;;2.80;;
17451;SDS011;8843;48.838;9.324;2023-07-30T05:29:01;2.63;;;1.97;;
17451;SDS011;8843;48.838;9.324;2023-07-30T05:31:28;2.30;;;2.10;;
17451;SDS011;8843;48.838;9.324;2023-07-30T05:33:55;2.30;;;2.10;;
17451;SDS011;8843;48.838;9.324;2023-07-30T05:36:23;3.70;;;2.33;;
17451;SDS011;8843;48.838;9.324;2023-07-30T05:38:50;2.33;;;1.87;;
17451;SDS011;8843;48.838;9.324;2023-07-30T05:41:17;4.97;;;2.50;;
17451;SDS011;8843;48.838;9.324;2023-07-30T05:43:46;3.10;;;2.13;;
17451;SDS011;8843;48.838;9.324;2023-07-30T05:46:13;2.33;;;2.13;;
17451;SDS011;8843;48.838;9.324;2023-07-30T05:48:40;2.47;;;1.80;;
17451;SDS011;8843;48.838;9.324;2023-07-30T05:51:06;4.77;;;2.37;;
17451;SDS011;8843;48.838;9.324;2023-07-30T05:53:35;2.20;;;1.60;;
17451;SDS011;8843;48.838;9.324;2023-07-30T05:56:01;2.30;;;2.10;;
17451;SDS011;8843;48.838;9.324;2023-07-30T05:58:28;2.70;;;1.70;;
17451;SDS011;8843;48.838;9.324;2023-07-30T06:00:56;2.33;;;1.67;;
17451;SDS011;8843;48.838;9.324;2023-07-30T06:03:23;2.37;;;1.73;;
17451;SDS011;8843;48.838;9.324;2023-07-30T06:05:50;2.23;;;1.93;;
17451;SDS011;8843;48.838;9.324;2023-07-30T06:08:17;1.57;;;1.47;;
17451;SDS011;8843;48.838;9.324;2023-07-30T06:10:45;2.03;;;1.50;;
17451;SDS011;8843;48.838;9.324;2023-07-30T06:13:12;2.50;;;1.80;;
17451;SDS011;8843;48.838;9.324;2023-07-30T06:15:39;1.80;;;1.70;;
17451;SDS011;8843;48.838;9.324;2023-07-30T06:18:06;2.27;;;1.50;;
17451;SDS011;8843;48.838;9.324;2023-07-30T06:20:33;1.73;;;1.63;;
17451;SDS011;8843;48.838;9.324;2023-07-30T06:23:00;2.13;;;1.67;;
17451;SDS011;8843;48.838;9.324;2023-07-30T06:25:27;2.20;;;1.70;;
17451;SDS011;8843;48.838;9.324;2023-07-30T06:27:55;2.13;;;1.80;;
17451;SDS011;8843;48.838;9.324;2023-07-30T06:30:23;1.80;;;1.70;;
17451;SDS011;8843;48.838;9.324;2023-07-30T06:32:50;1.97;;;1.77;;
17451;SDS011;8843;48.838;9.324;2023-07-30T06:35:17;2.00;;;1.70;;
17451;SDS011;8843;48.838;9.324;2023-07-30T06:37:44;2.10;;;1.90;;
17451;SDS011;8843;48.838;9.324;2023-07-30T06:40:11;1.63;;;1.53;;
17451;SDS011;8843;48.838;9.324;2023-07-30T06:42:38;2.27;;;1.60;;
17451;SDS011;8843;48.838;9.324;2023-07-30T06:45:07;1.60;;;1.50;;
17451;SDS011;8843;48.838;9.324;2023-07-30T06:47:34;2.60;;;1.73;;
17451;SDS011;8843;48.838;9.324;2023-07-30T06:50:01;2.40;;;1.50;;
17451;SDS011;8843;48.838;9.324;2023-07-30T06:52:28;2.43;;;1.90;;
17451;SDS011;8843;48.838;9.324;2023-07-30T06:54:55;2.10;;;1.80;;
17451;SDS011;8843;48.838;9.324;2023-07-30T06:57:22;3.03;;;2.13;;
17451;SDS011;8843;48.838;9.324;2023-07-30T06:59:49;2.47;;;2.27;;
17451;SDS011;8843;48.838;9.324;2023-07-30T07:02:17;3.63;;;2.30;;
17451;SDS011;8843;48.838;9.324;2023-07-30T07:04:44;2.63;;;2.43;;
17451;SDS011;8843;48.838;9.324;2023-07-30T07:07:11;3.57;;;2.40;;
17451;SDS011;8843;48.838;9.324;2023-07-30T07:09:38;2.63;;;2.40;;
17451;SDS011;8843;48.838;9.324;2023-07-30T07:12:05;4.10;;;2.37;;
17451;SDS011;8843;48.838;9.324;2023-07-30T07:14:32;2.50;;;2.30;;
17451;SDS011;8843;48.838;9.324;2023-07-30T07:16:59;3.00;;;2.50;;
17451;SDS011;8843;48.838;9.324;2023-07-30T07:19:27;2.93;;;2.60;;
17451;SDS011;8843;48.838;9.324;2023-07-30T07:21:54;4.60;;;2.60;;
17451;SDS011;8843;48.838;9.324;2023-07-30T07:24:21;3.33;;;2.40;;
17451;SDS011;8843;48.838;9.324;2023-07-30T07:26:48;4.30;;;2.83;;
17451;SDS011;8843;48.838;9.324;2023-07-30T07:29:15;2.13;;;1.93;;
17451;SDS011;8843;48.838;9.324;2023-07-30T07:31:42;2.60;;;2.40;;
17451;SDS011;8843;48.838;9.324;2023-07-30T07:34:11;2.27;;;2.07;;
17451;SDS011;8843;48.838;9.324;2023-07-30T07:36:39;3.37;;;2.33;;
17451;SDS011;8843;48.838;9.324;2023-07-30T07:39:06;2.17;;;2.00;;
17451;SDS011;8843;48.838;9.324;2023-07-30T07:41:33;2.80;;;2.07;;
17451;SDS011;8843;48.838;9.324;2023-07-30T07:44:00;3.03;;;1.97;;
17451;SDS011;8843;48.838;9.324;2023-07-30T07:46:27;2.60;;;2.40;;
17451;SDS011;8843;48.838;9.324;2023-07-30T07:48:53;3.57;;;2.23;;
17451;SDS011;8843;48.838;9.324;2023-07-30T07:51:20;4.73;;;2.10;;
17451;SDS011;8843;48.838;9.324;2023-07-30T07:53:49;3.70;;;2.40;;
17451;SDS011;8843;48.838;9.324;2023-07-30T07:56:15;1.90;;;1.80;;
17451;SDS011;8843;48.838;9.324;2023-07-30T07:58:42;2.00;;;1.80;;
17451;SDS011;8843;48.838;9.324;2023-07-30T08:01:09;1.50;;;1.40;;
17451;SDS011;8843;48.838;9.324;2023-07-30T08:03:36;1.73;;;1.60;;
17451;SDS011;8843;48.838;9.324;2023-07-30T08:06:03;1.93;;;1.77;;
17451;SDS011;8843;48.838;9.324;2023-07-30T08:08:30;1.73;;;1.63;;
17451;SDS011;8843;48.838;9.324;2023-07-30T08:10:58;2.77;;;1.90;;
17451;SDS011;8843;48.838;9.324;2023-07-30T08:13:30;1.97;;;1.77;;
17451;SDS011;8843;48.838;9.324;2023-07-30T08:15:57;2.23;;;1.83;;
17451;SDS011;8843;48.838;9.324;2023-07-30T08:18:24;2.60;;;1.80;;
17451;SDS011;8843;48.838;9.324;2023-07-30T08:20:51;2.07;;;1.60;;
17451;SDS011;8843;48.838;9.324;2023-07-30T08:23:18;2.37;;;1.67;;
17451;SDS011;8843;48.838;9.324;2023-07-30T08:25:44;1.47;;;1.37;;
17451;SDS011;8843;48.838;9.324;2023-07-30T08:28:13;1.80;;;1.70;;
17451;SDS011;8843;48.838;9.324;2023-07-30T08:30:40;2.10;;;1.90;;
17451;SDS011;8843;48.838;9.324;2023-07-30T08:33:06;1.63;;;1.53;;
17451;SDS011;8843;48.838;9.324;2023-07-30T08:35:33;2.00;;;1.80;;
17451;SDS011;8843;48.838;9.324;2023-07-30T08:38:00;3.30;;;1.93;;
17451;SDS011;8843;48.838;9.324;2023-07-30T08:40:27;3.50;;;2.20;;
17451;SDS011;8843;48.838;9.324;2023-07-30T08:42:54;3.53;;;2.33;;
17451;SDS011;8843;48.838;9.324;2023-07-30T08:45:22;2.47;;;2.27;;
17451;SDS011;8843;48.838;9.324;2023-07-30T08:47:49;3.03;;;2.40;;
17451;SDS011;8843;48.838;9.324;2023-07-30T08:50:16;4.03;;;3.03;;
17451;SDS011;8843;48.838;9.324;2023-07-30T08:52:43;5.63;;;2.70;;
17451;SDS011;8843;48.838;9.324;2023-07-30T08:55:10;4.20;;;2.30;;
17451;SDS011;8843;48.838;9.324;2023-07-30T08:57:38;3.27;;;2.57;;
17451;SDS011;8843;48.838;9.324;2023-07-30T09:00:07;3.77;;;2.70;;
17451;SDS011;8843;48.838;9.324;2023-07-30T09:02:39;3.53;;;3.23;;
17451;SDS011;8843;48.838;9.324;2023-07-30T09:05:10;3.70;;;2.63;;
17451;SDS011;8843;48.838;9.324;2023-07-30T09:07:37;3.60;;;2.80;;
17451;SDS011;8843;48.838;9.324;2023-07-30T09:10:04;2.90;;;2.60;;
17451;SDS011;8843;48.838;9.324;2023-07-30T09:12:32;2.97;;;2.70;;
17451;SDS011;8843;48.838;9.324;2023-07-30T09:15:00;3.20;;;2.90;;
17451;SDS011;8843;48.838;9.324;2023-07-30T09:17:29;2.60;;;2.40;;
17451;SDS011;8843;48.838;9.324;2023-07-30T09:19:59;3.00;;;2.70;;
17451;SDS011;8843;48.838;9.324;2023-07-30T09:22:28;5.13;;;3.50;;
17451;SDS011;8843;48.838;9.324;2023-07-30T09:25:00;3.53;;;3.23;;
17451;SDS011;8843;48.838;9.324;2023-07-30T09:27:29;3.77;;;2.90;;
17451;SDS011;8843;48.838;9.324;2023-07-30T09:29:59;3.90;;;2.80;;
17451;SDS011;8843;48.838;9.324;2023-07-30T09:32:28;2.50;;;2.30;;
17451;SDS011;8843;48.838;9.324;2023-07-30T09:34:56;3.03;;;2.10;;
17451;SDS011;8843;48.838;9.324;2023-07-30T09:37:30;4.03;;;2.10;;
17451;SDS011;8843;48.838;9.324;2023-07-30T09:39:57;5.63;;;2.27;;
17451;SDS011;8843;48.838;9.324;2023-07-30T09:42:26;2.33;;;1.93;;
17451;SDS011;8843;48.838;9.324;2023-07-30T09:44:53;2.33;;;2.03;;
17451;SDS011;8843;48.838;9.324;2023-07-30T09:47:25;3.23;;;1.97;;
17451;SDS011;8843;48.838;9.324;2023-07-30T09:49:53;2.13;;;1.90;;
17451;SDS011;8843;48.838;9.324;2023-07-30T09:52:21;3.93;;;2.10;;
17451;SDS011;8843;48.838;9.324;2023-07-30T09:54:48;3.03;;;2.00;;
17451;SDS011;8843;48.838;9.324;2023-07-30T09:57:15;2.03;;;1.90;;
17451;SDS011;8843;48.838;9.324;2023-07-30T09:59:43;2.97;;;1.90;;
17451;SDS011;8843;48.838;9.324;2023-07-30T10:02:10;2.07;;;1.90;;
17451;SDS011;8843;48.838;9.324;2023-07-30T10:04:43;3.23;;;2.10;;
17451;SDS011;8843;48.838;9.324;2023-07-30T10:07:14;4.20;;;1.97;;
17451;SDS011;8843;48.838;9.324;2023-07-30T10:09:46;2.77;;;2.10;;
17451;SDS011;8843;48.838;9.324;2023-07-30T10:12:16;2.00;;;1.90;;
17451;SDS011;8843;48.838;9.324;2023-07-30T10:14:47;2.10;;;1.90;;
17451;SDS011;8843;48.838;9.324;2023-07-30T10:17:14;4.00;;;2.27;;
17451;SDS011;8843;48.838;9.324;2023-07-30T10:19:44;2.30;;;2.00;;
17451;SDS011;8843;48.838;9.324;2023-07-30T10:22:20;2.77;;;2.10;;
17451;SDS011;8843;48.838;9.324;2023-07-30T10:24:59;2.03;;;1.93;;
17451;SDS011;8843;48.838;9.324;2023-07-30T10:27:27;2.80;;;2.43;;
17451;SDS011;8843;48.838;9.324;2023-07-30T10:33:00;2.53;;;2.33;;
17451;SDS011;8843;48.838;9.324;2023-07-30T10:35:38;2.20;;;2.07;;
17451;SDS011;8843;48.838;9.324;2023-07-30T10:38:16;2.53;;;2.27;;
17451;SDS011;8843;48.838;9.324;2023-07-30T10:41:02;2.70;;;2.40;;
17451;SDS011;8843;48.838;9.324;2023-07-30T18:10:47;2.47;;;1.40;;
17451;SDS011;8843;48.838;9.324;2023-07-30T18:13:15;1.77;;;1.30;;
17451;SDS011;8843;48.838;9.324;2023-07-30T18:15:42;2.67;;;1.40;;
17451;SDS011;8843;48.838;9.324;2023-07-30T18:18:09;4.10;;;1.83;;
17451;SDS011;8843;48.838;9.324;2023-07-30T18:20:37;2.23;;;1.47;;
17451;SDS011;8843;48.838;9.324;2023-07-30T18:23:04;2.37;;;1.80;;
17451;SDS011;8843;48.838;9.324;2023-07-30T18:25:31;2.00;;;1.37;;
17451;SDS011;8843;48.838;9.324;2023-07-30T18:27:59;2.37;;;1.27;;
17451;SDS011;8843;48.838;9.324;2023-07-30T18:30:26;2.00;;;1.57;;
17451;SDS011;8843;48.838;9.324;2023-07-30T18:32:53;2.40;;;1.47;;
17451;SDS011;8843;48.838;9.324;2023-07-30T18:35:20;5.53;;;1.90;;
17451;SDS011;8843;48.838;9.324;2023-07-30T18:37:47;2.87;;;1.57;;
17451;SDS011;8843;48.838;9.324;2023-07-30T18:40:14;1.97;;;1.37;;
17451;SDS011;8843;48.838;9.324;2023-07-30T18:42:42;4.03;;;1.63;;
17451;SDS011;8843;48.838;9.324;2023-07-30T18:45:10;2.83;;;1.23;;
17451;SDS011;8843;48.838;9.324;2023-07-30T18:47:37;4.23;;;2.13;;
17451;SDS011;8843;48.838;9.324;2023-07-30T18:50:04;3.20;;;1.47;;
17451;SDS011;8843;48.838;9.324;2023-07-30T18:52:32;2.77;;;1.30;;
17451;SDS011;8843;48.838;9.324;2023-07-30T18:54:59;1.53;;;1.40;;
17451;SDS011;8843;48.838;9.324;2023-07-30T18:57:26;5.20;;;1.30;;
17451;SDS011;8843;48.838;9.324;2023-07-30T18:59:53;3.13;;;1.70;;
17451;SDS011;8843;48.838;9.324;2023-07-30T19:02:21;2.37;;;1.50;;
17451;SDS011;8843;48.838;9.324;2023-07-30T19:04:48;2.00;;;1.50;;
17451;SDS011;8843;48.838;9.324;2023-07-30T19:07:15;4.07;;;1.60;;
17451;SDS011;8843;48.838;9.324;2023-07-30T19:09:42;2.80;;;1.40;;
17451;SDS011;8843;48.838;9.324;2023-07-30T19:12:09;2.33;;;1.33;;
17451;SDS011;8843;48.838;9.324;2023-07-30T19:14:37;1.77;;;1.33;;
17451;SDS011;8843;48.838;9.324;2023-07-30T19:17:04;3.83;;;1.50;;
17451;SDS011;8843;48.838;9.324;2023-07-30T19:19:32;2.73;;;1.70;;
17451;SDS011;8843;48.838;9.324;2023-07-30T19:21:59;2.63;;;1.40;;
17451;SDS011;8843;48.838;9.324;2023-07-30T19:24:26;4.70;;;1.60;;
17451;SDS011;8843;48.838;9.324;2023-07-30T19:26:53;3.43;;;1.40;;
17451;SDS011;8843;48.838;9.324;2023-07-30T19:29:20;2.87;;;1.77;;
17451;SDS011;8843;48.838;9.324;2023-07-30T19:31:47;5.10;;;1.63;;
17451;SDS011;8843;48.838;9.324;2023-07-30T19:34:14;3.80;;;1.40;;
17451;SDS011;8843;48.838;9.324;2023-07-30T19:36:43;3.50;;;1.60;;
17451;SDS011;8843;48.838;9.324;2023-07-30T19:39:11;3.10;;;1.40;;
17451;SDS011;8843;48.838;9.324;2023-07-30T19:41:38;2.80;;;1.70;;
17451;SDS011;8843;48.838;9.324;2023-07-30T19:44:05;2.93;;;1.40;;
17451;SDS011;8843;48.838;9.324;2023-07-30T19:46:32;3.20;;;1.30;;
17451;SDS011;8843;48.838;9.324;2023-07-30T19:48:59;2.63;;;1.40;;
17451;SDS011;8843;48.838;9.324;2023-07-30T19:51:27;1.50;;;1.40;;
17451;SDS011;8843;48.838;9.324;2023-07-30T19:53:55;3.13;;;1.60;;
17451;SDS011;8843;48.838;9.324;2023-07-30T19:56:22;3.37;;;1.83;;
17451;SDS011;8843;48.838;9.324;2023-07-30T19:58:49;5.50;;;2.50;;
17451;SDS011;8843;48.838;9.324;2023-07-30T20:01:16;4.83;;;2.87;;
17451;SDS011;8843;48.838;9.324;2023-07-30T20:03:43;4.03;;;2.13;;
17451;SDS011;8843;48.838;9.324;2023-07-30T20:06:10;4.87;;;2.30;;
17451;SDS011;8843;48.838;9.324;2023-07-30T20:08:37;3.83;;;2.50;;
17451;SDS011;8843;48.838;9.324;2023-07-30T20:11:05;4.70;;;2.00;;
17451;SDS011;8843;48.838;9.324;2023-07-30T20:13:32;4.30;;;2.10;;
17451;SDS011;8843;48.838;9.324;2023-07-30T20:15:59;3.93;;;1.70;;
17451;SDS011;8843;48.838;9.324;2023-07-30T20:18:26;4.43;;;2.00;;
17451;SDS011;8843;48.838;9.324;2023-07-30T20:20:55;5.60;;;2.23;;
17451;SDS011;8843;48.838;9.324;2023-07-30T20:23:22;3.43;;;1.80;;
17451;SDS011;8843;48.838;9.324;2023-07-30T20:25:50;3.67;;;1.93;;
17451;SDS011;8843;48.838;9.324;2023-07-30T20:28:19;5.73;;;2.60;;
17451;SDS011;8843;48.838;9.324;2023-07-30T20:30:47;2.57;;;1.60;;
17451;SDS011;8843;48.838;9.324;2023-07-30T20:33:14;2.77;;;1.53;;
17451;SDS011;8843;48.838;9.324;2023-07-30T20:35:41;3.67;;;2.17;;
17451;SDS011;8843;48.838;9.324;2023-07-30T20:38:08;2.53;;;2.10;;
17451;SDS011;8843;48.838;9.324;2023-07-30T20:40:35;5.27;;;2.10;;
17451;SDS011;8843;48.838;9.324;2023-07-30T20:43:02;3.60;;;2.00;;
17451;SDS011;8843;48.838;9.324;2023-07-30T20:45:30;5.63;;;2.00;;
17451;SDS011;8843;48.838;9.324;2023-07-30T20:47:57;5.03;;;2.30;;
17451;SDS011;8843;48.838;9.324;2023-07-30T20:50:24;4.13;;;2.17;;
17451;SDS011;8843;48.838;9.324;2023-07-30T20:52:51;3.23;;;2.20;;
17451;SDS011;8843;48.838;9.324;2023-07-30T20:55:18;3.60;;;1.97;;
17451;SDS011;8843;48.838;9.324;2023-07-30T20:57:45;4.77;;;2.40;;
17451;SDS011;8843;48.838;9.324;2023-07-30T21:00:12;5.77;;;2.90;;
17451;SDS011;8843;48.838;9.324;2023-07-30T21:02:41;5.53;;;2.47;;
17451;SDS011;8843;48.838;9.324;2023-07-30T21:05:08;6.23;;;2.50;;
17451;SDS011;8843;48.838;9.324;2023-07-30T21:07:35;5.40;;;1.93;;
17451;SDS011;8843;48.838;9.324;2023-07-30T21:10:02;5.20;;;2.23;;
17451;SDS011;8843;48.838;9.324;2023-07-30T21:12:29;4.50;;;1.83;;
17451;SDS011;8843;48.838;9.324;2023-07-30T21:14:57;3.57;;;2.03;;
17451;SDS011;8843;48.838;9.324;2023-07-30T21:17:25;2.50;;;1.87;;
17451;SDS011;8843;48.838;9.324;2023-07-30T21:19:53;2.43;;;1.57;;
17451;SDS011;8843;48.838;9.324;2023-07-30T21:22:20;4.30;;;2.00;;
17451;SDS011;8843;48.838;9.324;2023-07-30T21:24:50;3.60;;;1.80;;
17451;SDS011;8843;48.838;9.324;2023-07-30T21:27:17;3.60;;;1.83;;
17451;SDS011;8843;48.838;9.324;2023-07-30T21:29:44;3.67;;;1.80;;
17451;SDS011;8843;48.838;9.324;2023-07-30T21:32:11;1.77;;;1.57;;
17451;SDS011;8843;48.838;9.324;2023-07-30T21:34:38;3.83;;;1.87;;
17451;SDS011;8843;48.838;9.324;2023-07-30T21:37:08;2.13;;;1.70;;
17451;SDS011;8843;48.838;9.324;2023-07-30T21:39:35;4.10;;;1.90;;
17451;SDS011;8843;48.838;9.324;2023-07-30T21:42:02;5.07;;;1.90;;
17451;SDS011;8843;48.838;9.324;2023-07-30T21:44:31;5.60;;;1.57;;
17451;SDS011;8843;48.838;9.324;2023-07-30T21:46:58;4.37;;;1.63;;
17451;SDS011;8843;48.838;9.324;2023-07-30T21:49:25;1.80;;;1.60;;
17451;SDS011;8843;48.838;9.324;2023-07-30T21:51:53;3.83;;;2.13;;
17451;SDS011;8843;48.838;9.324;2023-07-30T21:54:22;2.43;;;1.67;;
17451;SDS011;8843;48.838;9.324;2023-07-30T21:56:49;3.37;;;2.13;;
17451;SDS011;8843;48.838;9.324;2023-07-30T21:59:16;4.77;;;1.77;;
17451;SDS011;8843;48.838;9.324;2023-07-30T22:01:43;4.80;;;1.70;;
17451;SDS011;8843;48.838;9.324;2023-07-30T22:04:10;6.67;;;2.40;;
17451;SDS011;8843;48.838;9.324;2023-07-30T22:06:37;2.73;;;1.67;;
17451;SDS011;8843;48.838;9.324;2023-07-30T22:09:03;2.43;;;1.43;;
17451;SDS011;8843;48.838;9.324;2023-07-30T22:11:32;2.97;;;1.63;;
17451;SDS011;8843;48.838;9.324;2023-07-30T22:13:59;3.40;;;1.70;;
17451;SDS011;8843;48.838;9.324;2023-07-30T22:16:25;3.83;;;1.70;;
17451;SDS011;8843;48.838;9.324;2023-07-30T22:18:52;3.27;;;2.10;;
17451;SDS011;8843;48.838;9.324;2023-07-30T22:21:19;3.93;;;1.77;;
17451;SDS011;8843;48.838;9.324;2023-07-30T22:23:46;5.63;;;1.63;;
17451;SDS011;8843;48.838;9.324;2023-07-30T22:26:13;4.97;;;1.40;;
17451;SDS011;8843;48.838;9.324;2023-07-30T22:28:41;4.30;;;1.40;;
17451;SDS011;8843;48.838;9.324;2023-07-30T22:31:08;5.93;;;2.00;;
17451;SDS011;8843;48.838;9.324;2023-07-30T22:33:35;4.47;;;1.90;;